EmailTwitter


Observations de surface / Québec / EGBE

Régions: Québec | Canada | États-Unis | Europe | France | UK | Elsewhere
Station
Affichage
Infos & localisation pour EGBE | Aide pour décoder les METARs

Observations prises le 2017-05-30 à 12H50 UTC à COVENTRY AIRPORT, UK (EGBE)

Etat du ciel: ciel variable.

Température: 19.0 Celsius

Point de rosée: 14.0 Celsius

Humidité relative: 73%

Vents: Ouest-sud-ouest à 19 km/h ou 10 noeuds.

Pression au niveau moyen de la mer: 101.40 kilopascals.

Visibilité horizontale: 6.21 milles terrestres ou 9.94 kilomètres.

Observation METAR:

EGBE 301250Z 25010KT 210V280 9999 SCT030 19/14 Q1014=